La Grande, Washington
Current Conditions -  °F | °C
As of 4:13 PM on Friday 21 Nov 2014 (Local Time) from KGRF Reporting Station
Light Rain Light Rain  
Wind Chill: 50°   Ceiling: 2900
Heat Index: 50°   Visibility: 9mi
Dew Point: 50°   Wind: 7mph
Humidity: 100%   Direction: 130°SE
Pressure: 29.33"   Gusts: NA
Location:  46.83°N, 122.32°W
Report Text: KGRF 220013Z AUTO 13006KT 9SM -RA BKN029 OVC036 10/10 A2933 RMK AO2
Loading
Personal Weather Stations






























Interactive Weather Map New forecast layout! Learn more

10-Day Weather Forecast

Advertisements
Track Severe Weather on mobile